createdAt,value
2022-10-09T00:01:56.678Z,4.28
2022-10-09T00:04:29.389Z,3.88
2022-10-09T00:07:09.454Z,4.40
2022-10-09T00:09:48.272Z,3.78
2022-10-09T00:12:18.849Z,3.53
2022-10-09T00:14:52.786Z,4.00
2022-10-09T00:17:34.322Z,3.90
2022-10-09T00:20:11.029Z,3.90
2022-10-09T00:22:51.098Z,3.97
2022-10-09T00:25:23.409Z,3.85
2022-10-09T00:27:51.106Z,3.65
2022-10-09T00:33:18.631Z,3.55
2022-10-09T00:35:50.662Z,3.78
2022-10-09T00:38:41.595Z,3.80
2022-10-09T00:41:15.696Z,4.03
2022-10-09T00:44:02.438Z,3.95
2022-10-09T00:46:39.558Z,4.15
2022-10-09T00:49:34.519Z,3.85
2022-10-09T00:52:15.419Z,4.22
2022-10-09T00:54:51.110Z,3.63
2022-10-09T00:57:24.318Z,4.03
2022-10-09T01:00:09.781Z,4.10
2022-10-09T01:02:44.602Z,3.78
2022-10-09T01:05:27.133Z,3.95
2022-10-09T01:08:11.146Z,4.18
2022-10-09T01:11:34.243Z,4.00
2022-10-09T01:14:36.887Z,3.92
2022-10-09T01:17:41.424Z,4.15
2022-10-09T01:20:36.715Z,4.00
2022-10-09T01:23:31.107Z,3.58
2022-10-09T01:26:06.669Z,4.13
2022-10-09T01:28:45.678Z,3.95
2022-10-09T01:31:35.080Z,4.00
2022-10-09T01:34:12.656Z,4.10
2022-10-09T01:37:00.105Z,4.38
2022-10-09T01:39:34.837Z,3.92
2022-10-09T01:42:14.828Z,4.50
2022-10-09T01:44:48.330Z,4.40
2022-10-09T01:47:33.023Z,4.05
2022-10-09T01:50:23.874Z,3.60
2022-10-09T01:53:00.675Z,4.05
2022-10-09T01:55:58.709Z,4.00
2022-10-09T01:58:37.118Z,4.07
2022-10-09T02:01:36.129Z,4.60
2022-10-09T02:04:22.596Z,3.78
2022-10-09T02:07:07.654Z,4.22
2022-10-09T02:09:40.299Z,3.65
2022-10-09T02:12:20.273Z,4.00
2022-10-09T02:15:00.618Z,4.40
2022-10-09T02:17:38.334Z,4.60
2022-10-09T02:23:20.382Z,3.80
2022-10-09T02:25:56.024Z,4.20
2022-10-09T02:28:27.240Z,4.13
2022-10-09T02:31:09.162Z,4.20
2022-10-09T02:33:48.446Z,3.85
2022-10-09T02:36:18.760Z,4.15
2022-10-09T02:39:19.736Z,4.03
2022-10-09T02:42:00.652Z,4.10
2022-10-09T02:44:43.053Z,4.20
2022-10-09T02:47:17.788Z,4.15
2022-10-09T02:50:05.706Z,4.30
2022-10-09T02:52:50.617Z,4.20
2022-10-09T02:55:29.637Z,3.67
2022-10-09T02:57:59.293Z,3.95
2022-10-09T03:00:35.306Z,3.75
2022-10-09T03:03:18.847Z,4.50
2022-10-09T03:05:58.959Z,4.18
2022-10-09T03:08:30.762Z,4.13
2022-10-09T03:11:05.830Z,4.15
2022-10-09T03:13:45.442Z,4.05
2022-10-09T03:16:26.643Z,4.07
2022-10-09T03:18:58.766Z,3.80
2022-10-09T03:21:33.275Z,3.67
2022-10-09T03:24:09.021Z,3.72
2022-10-09T03:26:39.705Z,3.92
2022-10-09T03:29:06.224Z,3.90
2022-10-09T03:31:51.389Z,4.18
2022-10-09T03:34:18.661Z,3.72
2022-10-09T03:36:45.138Z,3.90
2022-10-09T03:39:15.743Z,3.97
2022-10-09T03:41:42.253Z,3.92
2022-10-09T03:44:08.711Z,3.78
2022-10-09T03:46:40.328Z,3.42
2022-10-09T03:49:06.855Z,3.75
2022-10-09T03:51:34.353Z,3.97
2022-10-09T03:54:00.741Z,3.60
2022-10-09T03:56:29.510Z,4.28
2022-10-09T03:58:56.057Z,4.18
2022-10-09T04:01:22.586Z,3.80
2022-10-09T04:03:49.023Z,3.70
2022-10-09T04:06:17.634Z,3.55
2022-10-09T04:08:44.017Z,3.50
2022-10-09T04:11:11.467Z,3.72
2022-10-09T04:13:37.939Z,4.38
2022-10-09T04:16:05.765Z,3.78
2022-10-09T04:18:32.214Z,4.30
2022-10-09T04:20:58.605Z,4.15
2022-10-09T04:23:26.900Z,3.80
2022-10-09T04:26:00.113Z,3.80
2022-10-09T04:28:27.751Z,3.80
2022-10-09T04:30:54.191Z,3.75
2022-10-09T04:33:27.288Z,3.78
2022-10-09T04:35:55.375Z,3.70
2022-10-09T04:38:23.111Z,3.55
2022-10-09T04:41:06.705Z,3.80
2022-10-09T04:43:34.173Z,3.90
2022-10-09T04:46:12.897Z,3.90
2022-10-09T04:48:43.687Z,4.35
2022-10-09T04:51:10.664Z,4.20
2022-10-09T04:53:38.421Z,3.67
2022-10-09T04:56:07.952Z,4.00
2022-10-09T04:58:36.535Z,4.83
2022-10-09T05:01:10.262Z,4.45
2022-10-09T05:03:39.140Z,4.45
2022-10-09T05:06:08.271Z,4.32
2022-10-09T05:08:37.597Z,4.18
2022-10-09T05:11:06.250Z,4.80
2022-10-09T05:13:36.616Z,4.68
2022-10-09T05:16:09.721Z,5.40
2022-10-09T05:18:44.477Z,4.93
2022-10-09T05:21:11.656Z,4.30
2022-10-09T05:23:38.413Z,4.50
2022-10-09T05:26:07.430Z,4.30
2022-10-09T05:28:35.278Z,4.25
2022-10-09T05:31:06.734Z,4.07
2022-10-09T05:33:33.600Z,4.43
2022-10-09T05:36:02.609Z,4.68
2022-10-09T05:38:29.425Z,4.45
2022-10-09T05:40:57.960Z,4.20
2022-10-09T05:43:29.857Z,4.20
2022-10-09T05:46:04.070Z,4.38
2022-10-09T05:48:30.565Z,4.05
2022-10-09T05:51:20.843Z,4.43
2022-10-09T05:53:47.977Z,4.90
2022-10-09T05:56:19.232Z,4.45
2022-10-09T05:59:02.852Z,4.47
2022-10-09T06:01:33.122Z,4.07
2022-10-09T06:04:00.506Z,4.32
2022-10-09T06:06:33.472Z,5.00
2022-10-09T06:09:00.149Z,4.50
2022-10-09T06:11:31.747Z,5.25
2022-10-09T06:14:00.178Z,4.55
2022-10-09T06:16:29.469Z,4.70
2022-10-09T06:18:56.546Z,4.82
2022-10-09T06:21:26.416Z,4.70
2022-10-09T06:23:55.433Z,4.97
2022-10-09T06:26:23.916Z,4.20
2022-10-09T06:29:07.632Z,4.55
2022-10-09T06:31:34.247Z,4.57
2022-10-09T06:34:07.319Z,4.00
2022-10-09T06:36:35.261Z,4.40
2022-10-09T06:39:06.895Z,4.38
2022-10-09T06:41:34.374Z,4.82
2022-10-09T06:44:05.233Z,4.38
2022-10-09T06:46:34.205Z,4.60
2022-10-09T06:49:03.412Z,4.68
2022-10-09T06:51:33.582Z,4.93
2022-10-09T06:54:02.984Z,4.75
2022-10-09T06:56:31.913Z,4.90
2022-10-09T06:59:00.604Z,5.45
2022-10-09T07:01:32.130Z,4.72
2022-10-09T07:04:07.484Z,5.00
2022-10-09T07:06:38.713Z,4.78
2022-10-09T07:09:11.661Z,4.70
2022-10-09T07:11:42.898Z,5.40
2022-10-09T07:14:11.645Z,4.35
2022-10-09T07:16:45.285Z,4.75
2022-10-09T07:19:13.642Z,5.00
2022-10-09T07:21:42.620Z,4.82
2022-10-09T07:24:09.729Z,4.43
2022-10-09T07:26:39.308Z,4.60
2022-10-09T07:29:08.589Z,4.70
2022-10-09T07:31:35.257Z,5.35
2022-10-09T07:34:03.062Z,5.55
2022-10-09T07:36:29.707Z,5.40
2022-10-09T07:38:59.743Z,5.40
2022-10-09T07:41:28.320Z,5.05
2022-10-09T07:43:55.048Z,5.40
2022-10-09T07:46:26.146Z,5.05
2022-10-09T07:48:55.374Z,5.68
2022-10-09T07:51:27.207Z,5.10
2022-10-09T07:53:54.989Z,5.15
2022-10-09T07:56:30.350Z,4.85
2022-10-09T07:59:02.192Z,4.93
2022-10-09T08:01:30.264Z,4.90
2022-10-09T08:03:59.105Z,5.70
2022-10-09T08:06:25.877Z,5.07
2022-10-09T08:08:56.252Z,5.07
2022-10-09T08:13:50.975Z,5.13
2022-10-09T08:16:18.995Z,4.95
2022-10-09T08:18:46.815Z,5.07
2022-10-09T08:21:16.165Z,4.60
2022-10-09T08:23:43.103Z,4.90
2022-10-09T08:26:19.330Z,5.30
2022-10-09T08:28:56.071Z,5.15
2022-10-09T08:31:23.754Z,4.68
2022-10-09T08:34:02.992Z,5.40
2022-10-09T08:36:34.301Z,4.70
2022-10-09T08:39:26.687Z,4.95
2022-10-09T08:42:10.047Z,5.15
2022-10-09T08:44:55.713Z,5.63
2022-10-09T08:47:32.751Z,4.67
2022-10-09T08:50:19.770Z,4.78
2022-10-09T08:53:21.271Z,4.80
2022-10-09T08:56:11.397Z,4.80
2022-10-09T09:01:53.739Z,4.53
2022-10-09T09:04:20.237Z,4.22
2022-10-09T09:07:00.180Z,4.57
2022-10-09T09:09:45.866Z,4.53
2022-10-09T09:12:37.377Z,4.85
2022-10-09T09:15:38.361Z,4.18
2022-10-09T09:18:32.308Z,4.97
2022-10-09T09:21:36.035Z,4.68
2022-10-09T09:24:12.084Z,4.43
2022-10-09T09:26:40.457Z,4.50
2022-10-09T09:29:07.310Z,4.05
2022-10-09T09:31:37.973Z,4.05
2022-10-09T09:34:18.965Z,4.50
2022-10-09T09:37:07.152Z,4.40
2022-10-09T09:40:35.576Z,4.22
2022-10-09T09:43:05.134Z,4.10
2022-10-09T09:45:47.205Z,4.22
2022-10-09T09:48:28.018Z,4.20
2022-10-09T09:51:16.184Z,4.45
2022-10-09T09:53:44.572Z,4.57
2022-10-09T09:56:11.479Z,4.68
2022-10-09T09:58:47.237Z,4.60
2022-10-09T10:01:26.750Z,4.18
2022-10-09T10:03:56.461Z,4.87
2022-10-09T10:06:28.511Z,4.32
2022-10-09T10:09:16.438Z,4.47
2022-10-09T10:12:06.024Z,4.40
2022-10-09T10:14:33.194Z,4.87
2022-10-09T10:17:00.962Z,4.50
2022-10-09T10:19:35.294Z,4.90
2022-10-09T10:22:03.559Z,4.25
2022-10-09T10:24:42.672Z,4.18
2022-10-09T10:27:27.340Z,4.72
2022-10-09T10:30:01.166Z,5.10
2022-10-09T10:33:02.822Z,4.75
2022-10-09T10:35:45.467Z,4.50
2022-10-09T10:38:54.193Z,4.80
2022-10-09T10:41:39.338Z,4.80
2022-10-09T10:44:24.205Z,4.70
2022-10-09T10:47:02.445Z,4.95
2022-10-09T10:49:33.525Z,4.70
2022-10-09T10:52:21.526Z,4.80
2022-10-09T10:55:00.224Z,4.53
2022-10-09T10:57:48.445Z,5.10
2022-10-09T11:00:17.249Z,4.70
2022-10-09T11:03:18.221Z,5.00
2022-10-09T11:06:00.815Z,4.30
2022-10-09T11:08:41.989Z,4.40
2022-10-09T11:11:12.692Z,4.80
2022-10-09T11:13:39.117Z,4.30
2022-10-09T11:16:32.904Z,4.55
2022-10-09T11:19:07.716Z,4.15
2022-10-09T11:21:49.297Z,4.55
2022-10-09T11:24:37.544Z,4.22
2022-10-09T11:27:38.557Z,4.70
2022-10-09T11:30:10.510Z,4.50
2022-10-09T11:32:59.048Z,4.80
2022-10-09T11:35:31.051Z,4.88
2022-10-09T11:38:03.626Z,4.50
2022-10-09T11:40:38.226Z,4.70
2022-10-09T11:43:17.474Z,4.93
2022-10-09T11:45:53.138Z,4.47
2022-10-09T11:48:47.843Z,4.20
2022-10-09T11:51:33.929Z,4.40
2022-10-09T11:54:01.895Z,4.50
2022-10-09T11:56:30.205Z,4.63
2022-10-09T11:58:58.613Z,4.55
2022-10-09T12:01:31.405Z,5.00
2022-10-09T12:04:04.935Z,4.30
2022-10-09T12:06:32.352Z,4.00
2022-10-09T12:09:09.329Z,4.30
2022-10-09T12:11:35.887Z,4.40
2022-10-09T12:14:08.313Z,4.00
2022-10-09T12:16:44.455Z,4.60
2022-10-09T12:19:17.152Z,4.30
2022-10-09T12:21:50.193Z,4.40
2022-10-09T12:24:21.323Z,4.60
2022-10-09T12:26:49.698Z,4.57
2022-10-09T12:29:27.346Z,4.65
2022-10-09T12:31:58.193Z,4.45
2022-10-09T12:34:45.348Z,4.57
2022-10-09T12:37:18.715Z,4.90
2022-10-09T12:39:45.977Z,4.50
2022-10-09T12:42:19.171Z,4.20
2022-10-09T12:44:46.890Z,4.00
2022-10-09T12:47:19.056Z,4.53
2022-10-09T12:50:12.405Z,4.38
2022-10-09T12:53:13.854Z,4.00
2022-10-09T12:55:44.203Z,4.47
2022-10-09T13:01:08.063Z,4.00
2022-10-09T13:03:40.133Z,4.00
2022-10-09T13:06:17.107Z,4.03
2022-10-09T13:08:44.975Z,4.03
2022-10-09T13:11:17.886Z,4.53
2022-10-09T13:13:49.487Z,4.57
2022-10-09T13:16:16.112Z,4.55
2022-10-09T13:18:43.092Z,4.60
2022-10-09T13:21:34.275Z,4.50
2022-10-09T13:24:14.288Z,4.90
2022-10-09T13:26:43.776Z,5.22
2022-10-09T13:29:11.901Z,4.60
2022-10-09T13:31:43.276Z,4.80
2022-10-09T13:34:13.035Z,4.30
2022-10-09T13:36:39.823Z,4.22
2022-10-09T13:39:06.699Z,4.97
2022-10-09T13:41:33.770Z,4.95
2022-10-09T13:44:01.554Z,4.97
2022-10-09T13:46:28.210Z,4.88
2022-10-09T13:48:54.709Z,4.50
2022-10-09T13:51:21.175Z,4.93
2022-10-09T13:53:47.555Z,4.50
2022-10-09T13:56:14.045Z,4.78
2022-10-09T13:58:41.611Z,4.75
2022-10-09T14:01:09.653Z,4.70
2022-10-09T14:03:36.240Z,4.75
2022-10-09T14:06:06.032Z,4.53
2022-10-09T14:08:32.450Z,4.70
2022-10-09T14:11:02.435Z,4.60
2022-10-09T14:13:29.696Z,4.10
2022-10-09T14:15:56.122Z,4.22
2022-10-09T14:18:22.580Z,4.38
2022-10-09T14:20:49.132Z,4.40
2022-10-09T14:23:15.606Z,4.55
2022-10-09T14:25:42.019Z,4.70
2022-10-09T14:28:08.692Z,4.30
2022-10-09T14:30:40.245Z,4.32
2022-10-09T14:33:06.632Z,4.10
2022-10-09T14:35:34.752Z,4.72
2022-10-09T14:38:16.125Z,4.70
2022-10-09T14:40:43.804Z,4.28
2022-10-09T14:43:11.061Z,4.35
2022-10-09T14:45:38.113Z,4.63
2022-10-09T14:48:04.867Z,4.63
2022-10-09T14:50:31.265Z,4.40
2022-10-09T14:52:57.729Z,4.10
2022-10-09T14:55:24.109Z,4.47
2022-10-09T14:57:50.480Z,4.75
2022-10-09T15:00:17.026Z,4.38
2022-10-09T15:02:44.635Z,4.22
2022-10-09T15:05:20.262Z,4.40
2022-10-09T15:07:46.854Z,4.70
2022-10-09T15:10:14.743Z,4.53
2022-10-09T15:12:41.201Z,4.28
2022-10-09T15:15:08.112Z,4.13
2022-10-09T15:17:35.099Z,4.18
2022-10-09T15:20:01.665Z,4.00
2022-10-09T15:22:28.113Z,4.38
2022-10-09T15:24:54.514Z,4.25
2022-10-09T15:27:21.007Z,4.45
2022-10-09T15:29:47.396Z,4.22
2022-10-09T15:32:13.933Z,4.30
2022-10-09T15:34:41.293Z,4.32
2022-10-09T15:37:07.830Z,4.47
2022-10-09T15:39:34.246Z,4.10
2022-10-09T15:42:00.620Z,4.25
2022-10-09T15:44:27.212Z,4.40
2022-10-09T15:46:53.578Z,4.47
2022-10-09T15:49:19.974Z,4.20
2022-10-09T15:51:46.829Z,4.20
2022-10-09T15:54:14.411Z,4.30
2022-10-09T15:56:42.248Z,4.43
2022-10-09T15:59:13.160Z,4.15
2022-10-09T16:01:40.902Z,4.50
2022-10-09T16:04:07.715Z,4.60
2022-10-09T16:06:34.247Z,4.68
2022-10-09T16:09:03.979Z,4.60
2022-10-09T16:11:31.150Z,4.32
2022-10-09T16:13:58.106Z,4.53
2022-10-09T16:16:27.277Z,4.03
2022-10-09T16:18:55.145Z,3.90
2022-10-09T16:21:24.993Z,3.92
2022-10-09T16:23:58.547Z,4.20
2022-10-09T16:26:27.262Z,4.20
2022-10-09T16:28:54.027Z,4.20
2022-10-09T16:31:26.362Z,3.83
2022-10-09T16:33:53.426Z,4.00
2022-10-09T16:36:20.286Z,4.10
2022-10-09T16:38:47.404Z,4.40
2022-10-09T16:41:18.059Z,4.50
2022-10-09T16:43:46.118Z,4.10
2022-10-09T16:46:29.770Z,3.75
2022-10-09T16:48:58.414Z,3.78
2022-10-09T16:51:31.532Z,3.75
2022-10-09T16:54:00.118Z,3.50
2022-10-09T16:56:30.458Z,3.90
2022-10-09T17:01:34.173Z,4.05
2022-10-09T17:04:05.850Z,3.72
2022-10-09T17:06:32.430Z,3.72
2022-10-09T17:08:59.774Z,4.07
2022-10-09T17:11:28.145Z,4.40
2022-10-09T17:13:56.825Z,4.22
2022-10-09T17:16:27.147Z,4.30
2022-10-09T17:18:54.510Z,4.18
2022-10-09T17:21:21.338Z,4.10
2022-10-09T17:23:48.005Z,4.00
2022-10-09T17:26:17.658Z,3.92
2022-10-09T17:28:45.313Z,4.05
2022-10-09T17:31:15.484Z,3.65
2022-10-09T17:33:44.824Z,4.22
2022-10-09T17:36:13.980Z,4.25
2022-10-09T17:38:40.573Z,4.80
2022-10-09T17:41:09.790Z,4.60
2022-10-09T17:43:36.690Z,4.00
2022-10-09T17:46:03.558Z,4.20
2022-10-09T17:48:32.994Z,4.80
2022-10-09T17:51:00.705Z,4.80
2022-10-09T17:53:27.859Z,4.25
2022-10-09T17:55:55.526Z,4.78
2022-10-09T17:58:23.775Z,4.38
2022-10-09T18:00:50.978Z,4.25
2022-10-09T18:03:18.090Z,4.47
2022-10-09T18:05:46.539Z,4.28
2022-10-09T18:08:14.809Z,4.20
2022-10-09T18:10:41.338Z,4.43
2022-10-09T18:13:09.966Z,4.30
2022-10-09T18:15:41.229Z,4.18
2022-10-09T18:18:08.512Z,4.28
2022-10-09T18:20:36.132Z,4.25
2022-10-09T18:23:02.944Z,4.18
2022-10-09T18:25:29.408Z,4.00
2022-10-09T18:27:55.802Z,4.72
2022-10-09T18:30:22.209Z,4.25
2022-10-09T18:32:49.438Z,4.70
2022-10-09T18:35:16.155Z,4.43
2022-10-09T18:37:42.562Z,3.90
2022-10-09T18:40:09.228Z,3.85
2022-10-09T18:42:35.804Z,3.92
2022-10-09T18:45:02.736Z,3.90
2022-10-09T18:47:34.073Z,4.20
2022-10-09T18:50:06.046Z,4.18
2022-10-09T18:52:34.189Z,4.32
2022-10-09T18:55:01.618Z,3.60
2022-10-09T18:57:28.950Z,3.60
2022-10-09T18:59:56.949Z,4.00
2022-10-09T19:02:26.488Z,3.85
2022-10-09T19:04:54.038Z,4.15
2022-10-09T19:07:20.502Z,3.85
2022-10-09T19:09:54.930Z,3.65
2022-10-09T19:12:23.791Z,3.95
2022-10-09T19:14:50.158Z,3.88
2022-10-09T19:17:16.550Z,4.25
2022-10-09T19:19:42.920Z,4.10
2022-10-09T19:22:14.085Z,4.20
2022-10-09T19:24:41.789Z,3.75
2022-10-09T19:27:08.264Z,3.97
2022-10-09T19:29:34.809Z,4.07
2022-10-09T19:32:01.609Z,4.07
2022-10-09T19:34:29.649Z,4.03
2022-10-09T19:36:56.072Z,3.75
2022-10-09T19:39:22.531Z,4.00
2022-10-09T19:41:50.960Z,4.07
2022-10-09T19:44:17.826Z,4.25
2022-10-09T19:46:44.364Z,3.78
2022-10-09T19:49:10.765Z,4.13
2022-10-09T19:51:37.611Z,3.90
2022-10-09T19:54:06.206Z,3.97
2022-10-09T19:56:34.559Z,3.80
2022-10-09T19:59:02.560Z,3.90
2022-10-09T20:01:30.165Z,3.90
2022-10-09T20:03:58.864Z,4.65
2022-10-09T20:06:25.987Z,4.00
2022-10-09T20:08:52.405Z,3.70
2022-10-09T20:11:20.704Z,3.95
2022-10-09T20:13:52.127Z,4.22
2022-10-09T20:16:21.327Z,4.13
2022-10-09T20:18:47.774Z,3.90
2022-10-09T20:21:16.152Z,4.20
2022-10-09T20:23:44.245Z,3.95
2022-10-09T20:26:16.557Z,4.28
2022-10-09T20:28:44.045Z,4.05
2022-10-09T20:31:14.752Z,3.80
2022-10-09T20:33:41.526Z,4.07
2022-10-09T20:36:09.087Z,4.00
2022-10-09T20:38:35.660Z,4.00
2022-10-09T20:41:07.454Z,4.18
2022-10-09T20:43:35.184Z,4.13
2022-10-09T20:46:14.114Z,3.70
2022-10-09T20:48:43.989Z,3.85
2022-10-09T20:51:10.592Z,3.70
2022-10-09T20:53:37.143Z,4.18
2022-10-09T20:56:06.219Z,3.88
2022-10-09T20:58:33.886Z,3.97
2022-10-09T21:01:00.660Z,4.05
2022-10-09T21:03:27.151Z,4.00
2022-10-09T21:05:53.594Z,4.20
2022-10-09T21:08:19.999Z,4.10
2022-10-09T21:10:49.095Z,4.15
2022-10-09T21:13:16.473Z,3.60
2022-10-09T21:15:44.620Z,3.83
2022-10-09T21:18:11.585Z,3.95
2022-10-09T21:20:43.147Z,3.83
2022-10-09T21:23:10.023Z,4.05
2022-10-09T21:25:36.970Z,3.90
2022-10-09T21:28:04.445Z,3.80
2022-10-09T21:30:31.147Z,3.95
2022-10-09T21:32:57.540Z,4.10
2022-10-09T21:35:23.996Z,3.60
2022-10-09T21:37:50.644Z,4.00
2022-10-09T21:40:18.110Z,3.85
2022-10-09T21:42:44.645Z,4.05
2022-10-09T21:45:12.898Z,3.40
2022-10-09T21:47:39.370Z,3.90
2022-10-09T21:50:06.411Z,3.75
2022-10-09T21:52:32.836Z,3.63
2022-10-09T21:54:59.261Z,3.88
2022-10-09T21:57:25.659Z,3.53
2022-10-09T21:59:52.042Z,3.88
2022-10-09T22:02:18.424Z,3.47
2022-10-09T22:04:44.798Z,3.70
2022-10-09T22:07:11.198Z,3.60
2022-10-09T22:09:37.620Z,3.60
2022-10-09T22:12:04.095Z,3.80
2022-10-09T22:14:31.759Z,3.72
2022-10-09T22:16:58.168Z,3.25
2022-10-09T22:19:24.534Z,3.90
2022-10-09T22:21:50.970Z,3.55
2022-10-09T22:24:17.365Z,3.75
2022-10-09T22:26:43.733Z,3.70
2022-10-09T22:29:10.128Z,3.85
2022-10-09T22:31:36.491Z,4.18
2022-10-09T22:34:03.060Z,4.00
2022-10-09T22:36:32.456Z,3.70
2022-10-09T22:39:01.544Z,4.15
2022-10-09T22:41:29.668Z,3.90
2022-10-09T22:43:58.021Z,4.05
2022-10-09T22:46:29.778Z,3.83
2022-10-09T22:48:56.710Z,4.28
2022-10-09T22:51:24.733Z,3.90
2022-10-09T22:53:51.361Z,3.83
2022-10-09T22:56:20.084Z,3.60
2022-10-09T22:58:48.058Z,3.70
2022-10-09T23:01:19.352Z,4.13
2022-10-09T23:03:45.764Z,3.90
2022-10-09T23:06:17.804Z,4.18
2022-10-09T23:08:47.442Z,3.85
2022-10-09T23:11:15.325Z,4.07
2022-10-09T23:13:42.090Z,3.88
2022-10-09T23:16:10.868Z,4.10
2022-10-09T23:18:38.243Z,4.43
2022-10-09T23:21:10.895Z,4.40
2022-10-09T23:23:37.450Z,3.88
2022-10-09T23:26:09.198Z,4.10
2022-10-09T23:28:39.122Z,4.38
2022-10-09T23:31:14.457Z,3.97
2022-10-09T23:33:43.690Z,4.15
2022-10-09T23:36:12.956Z,3.95
2022-10-09T23:38:40.004Z,5.20
2022-10-09T23:41:09.477Z,4.10
2022-10-09T23:43:37.656Z,4.05
2022-10-09T23:46:08.062Z,4.03
2022-10-09T23:51:01.459Z,4.03
2022-10-09T23:53:28.210Z,4.25
2022-10-09T23:55:54.973Z,4.43
2022-10-09T23:58:22.352Z,3.63
